sensor_id;sensor_type;location;lat;lon;timestamp;pressure;altitude;pressure_sealevel;temperature;humidity
71966;BME280;59836;52.132;5.442;2023-08-12T00:00:41;101786.59;;;19.36;100.00
71966;BME280;59836;52.132;5.442;2023-08-12T00:03:08;101791.78;;;19.38;100.00
71966;BME280;59836;52.132;5.442;2023-08-12T00:05:36;101795.38;;;19.38;100.00
71966;BME280;59836;52.132;5.442;2023-08-12T00:08:05;101803.63;;;19.38;100.00
71966;BME280;59836;52.132;5.442;2023-08-12T00:10:45;101793.75;;;19.37;100.00
71966;BME280;59836;52.132;5.442;2023-08-12T00:13:15;101788.53;;;19.36;100.00
71966;BME280;59836;52.132;5.442;2023-08-12T00:15:45;101781.09;;;19.36;100.00
71966;BME280;59836;52.132;5.442;2023-08-12T00:18:12;101789.88;;;19.38;100.00
71966;BME280;59836;52.132;5.442;2023-08-12T00:20:44;101797.00;;;19.39;100.00
71966;BME280;59836;52.132;5.442;2023-08-12T00:23:11;101785.16;;;19.39;100.00
71966;BME280;59836;52.132;5.442;2023-08-12T00:25:38;101783.53;;;19.38;100.00
71966;BME280;59836;52.132;5.442;2023-08-12T00:28:05;101784.97;;;19.35;100.00
71966;BME280;59836;52.132;5.442;2023-08-12T00:30:31;101787.22;;;19.33;100.00
71966;BME280;59836;52.132;5.442;2023-08-12T00:33:03;101781.81;;;19.28;100.00
71966;BME280;59836;52.132;5.442;2023-08-12T00:35:30;101772.75;;;19.27;100.00
71966;BME280;59836;52.132;5.442;2023-08-12T00:38:29;101770.31;;;19.26;100.00
71966;BME280;59836;52.132;5.442;2023-08-12T00:40:55;101769.78;;;19.24;100.00
71966;BME280;59836;52.132;5.442;2023-08-12T00:43:22;101765.41;;;19.23;100.00
71966;BME280;59836;52.132;5.442;2023-08-12T00:45:49;101763.78;;;19.22;100.00
71966;BME280;59836;52.132;5.442;2023-08-12T00:48:17;101757.47;;;19.21;100.00
71966;BME280;59836;52.132;5.442;2023-08-12T00:54:22;101745.16;;;19.18;100.00
71966;BME280;59836;52.132;5.442;2023-08-12T00:57:05;101748.69;;;19.19;100.00
71966;BME280;59836;52.132;5.442;2023-08-12T00:59:34;101736.41;;;19.16;100.00
71966;BME280;59836;52.132;5.442;2023-08-12T01:02:20;101746.56;;;19.16;100.00
71966;BME280;59836;52.132;5.442;2023-08-12T01:04:47;101748.00;;;19.13;100.00
71966;BME280;59836;52.132;5.442;2023-08-12T01:07:26;101741.69;;;19.13;100.00
71966;BME280;59836;52.132;5.442;2023-08-12T01:09:53;101732.91;;;19.11;100.00
71966;BME280;59836;52.132;5.442;2023-08-12T01:12:36;101730.50;;;19.09;100.00
71966;BME280;59836;52.132;5.442;2023-08-12T01:15:15;101733.06;;;19.06;100.00
71966;BME280;59836;52.132;5.442;2023-08-12T01:17:46;101730.59;;;19.04;100.00
71966;BME280;59836;52.132;5.442;2023-08-12T01:20:22;101726.22;;;19.03;100.00
71966;BME280;59836;52.132;5.442;2023-08-12T01:23:20;101731.19;;;19.01;100.00
71966;BME280;59836;52.132;5.442;2023-08-12T01:25:47;101727.94;;;18.99;100.00
71966;BME280;59836;52.132;5.442;2023-08-12T01:28:16;101728.53;;;18.96;100.00
71966;BME280;59836;52.132;5.442;2023-08-12T01:36:33;101722.00;;;18.92;100.00
71966;BME280;59836;52.132;5.442;2023-08-12T01:39:11;101718.75;;;18.89;100.00
71966;BME280;59836;52.132;5.442;2023-08-12T01:41:38;101718.75;;;18.89;100.00
71966;BME280;59836;52.132;5.442;2023-08-12T01:44:06;101713.25;;;18.89;100.00
71966;BME280;59836;52.132;5.442;2023-08-12T01:46:33;101697.25;;;18.92;100.00
71966;BME280;59836;52.132;5.442;2023-08-12T01:48:59;101692.28;;;18.94;100.00
71966;BME280;59836;52.132;5.442;2023-08-12T01:51:26;101698.91;;;18.93;100.00
71966;BME280;59836;52.132;5.442;2023-08-12T01:53:54;101685.75;;;18.89;100.00
71966;BME280;59836;52.132;5.442;2023-08-12T01:56:32;101693.22;;;18.89;100.00
71966;BME280;59836;52.132;5.442;2023-08-12T01:59:29;101691.25;;;18.89;100.00
71966;BME280;59836;52.132;5.442;2023-08-12T02:01:56;101686.38;;;18.86;100.00
71966;BME280;59836;52.132;5.442;2023-08-12T02:04:42;101682.50;;;18.87;100.00
71966;BME280;59836;52.132;5.442;2023-08-12T02:07:10;101680.25;;;18.89;100.00
71966;BME280;59836;52.132;5.442;2023-08-12T02:09:37;101684.13;;;18.88;100.00
71966;BME280;59836;52.132;5.442;2023-08-12T02:12:17;101676.41;;;18.91;100.00
71966;BME280;59836;52.132;5.442;2023-08-12T02:14:46;101677.22;;;18.91;100.00
71966;BME280;59836;52.132;5.442;2023-08-12T02:17:13;101670.91;;;18.91;100.00
71966;BME280;59836;52.132;5.442;2023-08-12T02:19:40;101674.97;;;18.93;100.00
71966;BME280;59836;52.132;5.442;2023-08-12T02:22:11;101661.75;;;18.95;100.00
71966;BME280;59836;52.132;5.442;2023-08-12T02:24:38;101671.34;;;18.98;100.00
71966;BME280;59836;52.132;5.442;2023-08-12T02:27:05;101660.66;;;18.96;100.00
71966;BME280;59836;52.132;5.442;2023-08-12T02:29:32;101663.59;;;19.00;100.00
71966;BME280;59836;52.132;5.442;2023-08-12T02:32:01;101657.47;;;19.03;100.00
71966;BME280;59836;52.132;5.442;2023-08-12T02:34:30;101653.59;;;19.04;100.00
71966;BME280;59836;52.132;5.442;2023-08-12T02:36:57;101653.59;;;19.04;100.00
71966;BME280;59836;52.132;5.442;2023-08-12T02:39:24;101653.59;;;19.04;100.00
71966;BME280;59836;52.132;5.442;2023-08-12T02:41:52;101647.00;;;19.05;100.00
71966;BME280;59836;52.132;5.442;2023-08-12T02:44:19;101649.13;;;19.08;100.00
71966;BME280;59836;52.132;5.442;2023-08-12T02:46:46;101647.16;;;19.09;100.00
71966;BME280;59836;52.132;5.442;2023-08-12T02:49:47;101645.25;;;19.09;100.00
71966;BME280;59836;52.132;5.442;2023-08-12T02:52:14;101643.31;;;19.10;100.00
71966;BME280;59836;52.132;5.442;2023-08-12T02:54:43;101639.75;;;19.09;100.00
71966;BME280;59836;52.132;5.442;2023-08-12T02:57:09;101638.13;;;19.08;100.00
71966;BME280;59836;52.132;5.442;2023-08-12T02:59:40;101634.25;;;19.09;100.00
71966;BME280;59836;52.132;5.442;2023-08-12T03:02:06;101634.25;;;19.09;100.00
71966;BME280;59836;52.132;5.442;2023-08-12T03:04:33;101626.00;;;19.09;100.00
71966;BME280;59836;52.132;5.442;2023-08-12T03:07:07;101629.25;;;19.11;100.00
71966;BME280;59836;52.132;5.442;2023-08-12T03:09:35;101619.88;;;19.12;100.00
71966;BME280;59836;52.132;5.442;2023-08-12T03:12:01;101614.91;;;19.14;100.00
71966;BME280;59836;52.132;5.442;2023-08-12T03:14:29;101615.69;;;19.15;100.00
71966;BME280;59836;52.132;5.442;2023-08-12T03:16:56;101616.53;;;19.15;100.00
71966;BME280;59836;52.132;5.442;2023-08-12T03:19:26;101614.28;;;19.17;100.00
71966;BME280;59836;52.132;5.442;2023-08-12T03:21:56;101609.56;;;19.18;100.00
71966;BME280;59836;52.132;5.442;2023-08-12T03:24:23;101603.28;;;19.17;100.00
71966;BME280;59836;52.132;5.442;2023-08-12T03:26:54;101612.31;;;19.18;100.00
71966;BME280;59836;52.132;5.442;2023-08-12T03:29:31;101606.53;;;19.20;100.00
71966;BME280;59836;52.132;5.442;2023-08-12T03:31:58;101606.53;;;19.20;100.00
71966;BME280;59836;52.132;5.442;2023-08-12T03:34:24;101601.53;;;19.22;100.00
71966;BME280;59836;52.132;5.442;2023-08-12T03:36:58;101594.91;;;19.23;100.00
71966;BME280;59836;52.132;5.442;2023-08-12T03:39:25;101599.28;;;19.24;100.00
71966;BME280;59836;52.132;5.442;2023-08-12T03:41:52;101595.91;;;19.27;100.00
71966;BME280;59836;52.132;5.442;2023-08-12T03:44:19;101587.16;;;19.25;100.00
71966;BME280;59836;52.132;5.442;2023-08-12T03:46:46;101582.47;;;19.25;100.00
71966;BME280;59836;52.132;5.442;2023-08-12T03:49:13;101580.53;;;19.26;100.00
71966;BME280;59836;52.132;5.442;2023-08-12T03:51:43;101584.09;;;19.26;100.00
71966;BME280;59836;52.132;5.442;2023-08-12T03:54:10;101570.66;;;19.25;100.00
71966;BME280;59836;52.132;5.442;2023-08-12T03:56:37;101571.47;;;19.25;100.00
71966;BME280;59836;52.132;5.442;2023-08-12T03:59:15;101573.09;;;19.26;100.00
71966;BME280;59836;52.132;5.442;2023-08-12T04:01:41;101571.16;;;19.27;100.00
71966;BME280;59836;52.132;5.442;2023-08-12T04:04:23;101568.41;;;19.27;100.00
71966;BME280;59836;52.132;5.442;2023-08-12T04:06:50;101567.28;;;19.28;100.00
71966;BME280;59836;52.132;5.442;2023-08-12T04:09:18;101561.78;;;19.28;100.00
71966;BME280;59836;52.132;5.442;2023-08-12T04:11:46;101557.09;;;19.28;100.00
71966;BME280;59836;52.132;5.442;2023-08-12T04:14:13;101558.22;;;19.27;100.00
71966;BME280;59836;52.132;5.442;2023-08-12T04:16:41;101559.03;;;19.28;100.00
71966;BME280;59836;52.132;5.442;2023-08-12T04:19:08;101546.41;;;19.27;100.00
71966;BME280;59836;52.132;5.442;2023-08-12T04:21:37;101542.53;;;19.28;100.00
71966;BME280;59836;52.132;5.442;2023-08-12T04:24:04;101541.41;;;19.29;100.00
71966;BME280;59836;52.132;5.442;2023-08-12T04:26:57;101537.53;;;19.30;100.00
71966;BME280;59836;52.132;5.442;2023-08-12T04:29:29;101545.16;;;19.33;100.00
71966;BME280;59836;52.132;5.442;2023-08-12T04:31:56;101545.16;;;19.33;100.00
71966;BME280;59836;52.132;5.442;2023-08-12T04:34:24;101551.97;;;19.36;100.00
71966;BME280;59836;52.132;5.442;2023-08-12T04:36:50;101542.91;;;19.35;100.00
71966;BME280;59836;52.132;5.442;2023-08-12T04:39:18;101545.66;;;19.35;100.00
71966;BME280;59836;52.132;5.442;2023-08-12T04:41:48;101534.34;;;19.37;100.00
71966;BME280;59836;52.132;5.442;2023-08-12T04:44:15;101525.78;;;19.38;100.00
71966;BME280;59836;52.132;5.442;2023-08-12T04:46:41;101516.41;;;19.39;100.00
71966;BME280;59836;52.132;5.442;2023-08-12T04:49:08;101509.47;;;19.42;100.00
71966;BME280;59836;52.132;5.442;2023-08-12T04:51:40;101501.69;;;19.44;100.00
71966;BME280;59836;52.132;5.442;2023-08-12T04:54:10;101504.47;;;19.44;100.00
71966;BME280;59836;52.132;5.442;2023-08-12T05:02:13;101491.41;;;19.50;100.00
71966;BME280;59836;52.132;5.442;2023-08-12T05:04:40;101498.69;;;19.54;100.00
71966;BME280;59836;52.132;5.442;2023-08-12T05:07:10;101495.16;;;19.54;100.00
71966;BME280;59836;52.132;5.442;2023-08-12T05:09:37;101490.13;;;19.56;100.00
71966;BME280;59836;52.132;5.442;2023-08-12T05:12:04;101481.88;;;19.56;100.00
71966;BME280;59836;52.132;5.442;2023-08-12T05:14:30;101486.25;;;19.57;100.00
71966;BME280;59836;52.132;5.442;2023-08-12T05:16:57;101493.88;;;19.60;100.00
71966;BME280;59836;52.132;5.442;2023-08-12T05:19:24;101486.75;;;19.59;100.00
71966;BME280;59836;52.132;5.442;2023-08-12T05:21:50;101495.47;;;19.61;100.00
71966;BME280;59836;52.132;5.442;2023-08-12T05:24:17;101504.91;;;19.60;100.00
71966;BME280;59836;52.132;5.442;2023-08-12T05:26:43;101502.94;;;19.60;100.00
71966;BME280;59836;52.132;5.442;2023-08-12T05:29:14;101501.31;;;19.59;100.00
71966;BME280;59836;52.132;5.442;2023-08-12T05:31:55;101499.38;;;19.60;100.00
71966;BME280;59836;52.132;5.442;2023-08-12T05:34:36;101495.47;;;19.61;100.00
71966;BME280;59836;52.132;5.442;2023-08-12T05:37:03;101500.97;;;19.61;100.00
71966;BME280;59836;52.132;5.442;2023-08-12T05:39:29;101501.47;;;19.63;100.00
71966;BME280;59836;52.132;5.442;2023-08-12T05:41:57;101503.72;;;19.61;100.00
71966;BME280;59836;52.132;5.442;2023-08-12T05:44:23;101492.72;;;19.61;100.00
71966;BME280;59836;52.132;5.442;2023-08-12T05:46:51;101497.09;;;19.62;100.00
71966;BME280;59836;52.132;5.442;2023-08-12T05:49:17;101497.09;;;19.62;100.00
71966;BME280;59836;52.132;5.442;2023-08-12T05:51:44;101503.44;;;19.62;100.00
71966;BME280;59836;52.132;5.442;2023-08-12T05:54:10;101504.22;;;19.63;100.00
71966;BME280;59836;52.132;5.442;2023-08-12T05:56:37;101498.72;;;19.63;100.00
71966;BME280;59836;52.132;5.442;2023-08-12T05:59:04;101497.09;;;19.62;100.00
71966;BME280;59836;52.132;5.442;2023-08-12T06:01:33;101497.94;;;19.62;100.00
71966;BME280;59836;52.132;5.442;2023-08-12T06:04:08;101490.81;;;19.61;100.00
71966;BME280;59836;52.132;5.442;2023-08-12T06:06:39;101495.47;;;19.61;100.00
71966;BME280;59836;52.132;5.442;2023-08-12T06:09:16;101498.22;;;19.61;100.00
71966;BME280;59836;52.132;5.442;2023-08-12T06:12:12;101498.22;;;19.61;100.00
71966;BME280;59836;52.132;5.442;2023-08-12T06:14:40;101497.09;;;19.62;100.00
71966;BME280;59836;52.132;5.442;2023-08-12T06:17:21;101486.75;;;19.59;100.00
71966;BME280;59836;52.132;5.442;2023-08-12T06:22:53;101493.69;;;19.56;100.00
71966;BME280;59836;52.132;5.442;2023-08-12T06:25:22;101491.75;;;19.57;100.00
71966;BME280;59836;52.132;5.442;2023-08-12T06:27:49;101492.88;;;19.56;100.00
71966;BME280;59836;52.132;5.442;2023-08-12T06:30:20;101492.88;;;19.56;100.00
71966;BME280;59836;52.132;5.442;2023-08-12T06:32:47;101489.63;;;19.54;100.00
71966;BME280;59836;52.132;5.442;2023-08-12T06:35:23;101493.53;;;19.53;100.00
71966;BME280;59836;52.132;5.442;2023-08-12T06:38:18;101498.19;;;19.52;100.00
71966;BME280;59836;52.132;5.442;2023-08-12T06:40:46;101500.44;;;19.50;100.00
71966;BME280;59836;52.132;5.442;2023-08-12T06:43:13;101498.81;;;19.49;100.00
71966;BME280;59836;52.132;5.442;2023-08-12T06:48:43;101500.28;;;19.46;100.00
71966;BME280;59836;52.132;5.442;2023-08-12T06:51:10;101486.03;;;19.44;100.00
71966;BME280;59836;52.132;5.442;2023-08-12T06:53:38;101490.41;;;19.45;100.00
71966;BME280;59836;52.132;5.442;2023-08-12T06:56:06;101477.78;;;19.44;100.00
71966;BME280;59836;52.132;5.442;2023-08-12T06:58:45;101474.53;;;19.42;100.00
71966;BME280;59836;52.132;5.442;2023-08-12T07:01:12;101475.66;;;19.41;100.00
71966;BME280;59836;52.132;5.442;2023-08-12T07:03:41;101480.31;;;19.41;100.00
71966;BME280;59836;52.132;5.442;2023-08-12T07:06:10;101478.69;;;19.40;100.00
71966;BME280;59836;52.132;5.442;2023-08-12T07:08:53;101470.78;;;19.38;100.00
71966;BME280;59836;52.132;5.442;2023-08-12T07:11:28;101473.53;;;19.38;100.00
71966;BME280;59836;52.132;5.442;2023-08-12T07:13:54;101473.03;;;19.36;100.00
71966;BME280;59836;52.132;5.442;2023-08-12T07:16:29;101471.56;;;19.39;100.00
71966;BME280;59836;52.132;5.442;2023-08-12T07:18:55;101460.56;;;19.39;100.00
71966;BME280;59836;52.132;5.442;2023-08-12T07:21:27;101463.66;;;19.37;100.00
71966;BME280;59836;52.132;5.442;2023-08-12T07:24:09;101464.94;;;19.40;100.00
71966;BME280;59836;52.132;5.442;2023-08-12T07:26:35;101461.41;;;19.39;100.00
71966;BME280;59836;52.132;5.442;2023-08-12T07:29:08;101452.03;;;19.40;100.00
71966;BME280;59836;52.132;5.442;2023-08-12T07:31:45;101462.19;;;19.40;100.00
71966;BME280;59836;52.132;5.442;2023-08-12T07:34:12;101453.16;;;19.39;100.00
71966;BME280;59836;52.132;5.442;2023-08-12T07:36:40;101450.06;;;19.41;100.00
71966;BME280;59836;52.132;5.442;2023-08-12T07:39:07;101450.41;;;19.39;100.00
71966;BME280;59836;52.132;5.442;2023-08-12T07:41:59;101444.91;;;19.39;100.00
71966;BME280;59836;52.132;5.442;2023-08-12T07:44:44;101448.16;;;19.41;100.00
71966;BME280;59836;52.132;5.442;2023-08-12T07:47:12;101437.94;;;19.42;100.00
71966;BME280;59836;52.132;5.442;2023-08-12T07:49:38;101437.16;;;19.41;100.00
71966;BME280;59836;52.132;5.442;2023-08-12T07:52:14;101442.00;;;19.44;100.00
71966;BME280;59836;52.132;5.442;2023-08-12T07:54:45;101432.63;;;19.45;100.00
71966;BME280;59836;52.132;5.442;2023-08-12T07:57:24;101438.13;;;19.45;100.00
71966;BME280;59836;52.132;5.442;2023-08-12T07:59:55;101440.56;;;19.47;100.00
71966;BME280;59836;52.132;5.442;2023-08-12T08:02:32;101435.88;;;19.47;100.00
71966;BME280;59836;52.132;5.442;2023-08-12T08:05:04;101441.38;;;19.47;100.00
71966;BME280;59836;52.132;5.442;2023-08-12T08:07:47;101435.38;;;19.45;100.00
71966;BME280;59836;52.132;5.442;2023-08-12T08:10:14;101448.50;;;19.49;100.00
71966;BME280;59836;52.132;5.442;2023-08-12T08:12:40;101449.13;;;19.45;100.00
71966;BME280;59836;52.132;5.442;2023-08-12T08:15:07;101449.13;;;19.45;100.00
71966;BME280;59836;52.132;5.442;2023-08-12T08:17:34;101446.06;;;19.47;100.00
71966;BME280;59836;52.132;5.442;2023-08-12T08:20:03;101447.69;;;19.48;100.00
71966;BME280;59836;52.132;5.442;2023-08-12T08:22:31;101443.00;;;19.49;100.00
71966;BME280;59836;52.132;5.442;2023-08-12T08:24:58;101447.69;;;19.48;100.00
71966;BME280;59836;52.132;5.442;2023-08-12T08:27:27;101446.06;;;19.47;100.00
71966;BME280;59836;52.132;5.442;2023-08-12T08:29:55;101446.88;;;19.47;100.00
71966;BME280;59836;52.132;5.442;2023-08-12T08:32:35;101449.63;;;19.47;100.00
71966;BME280;59836;52.132;5.442;2023-08-12T08:35:01;101445.25;;;19.46;100.00
71966;BME280;59836;52.132;5.442;2023-08-12T08:37:28;101445.25;;;19.46;100.00
71966;BME280;59836;52.132;5.442;2023-08-12T08:39:55;101446.06;;;19.47;100.00
71966;BME280;59836;52.132;5.442;2023-08-12T08:42:24;101439.13;;;19.50;100.00
71966;BME280;59836;52.132;5.442;2023-08-12T08:45:16;101460.50;;;19.53;100.00
71966;BME280;59836;52.132;5.442;2023-08-12T08:47:55;101459.38;;;19.54;100.00
71966;BME280;59836;52.132;5.442;2023-08-12T08:50:22;101459.38;;;19.54;100.00
71966;BME280;59836;52.132;5.442;2023-08-12T08:53:15;101464.25;;;19.57;100.00
71966;BME280;59836;52.132;5.442;2023-08-12T08:55:42;101460.66;;;19.56;100.00
71966;BME280;59836;52.132;5.442;2023-08-12T08:58:09;101458.41;;;19.58;100.00
71966;BME280;59836;52.132;5.442;2023-08-12T09:00:38;101461.16;;;19.58;100.00
71966;BME280;59836;52.132;5.442;2023-08-12T09:03:18;101463.13;;;19.58;100.00
71966;BME280;59836;52.132;5.442;2023-08-12T09:05:46;101470.88;;;19.56;100.00
71966;BME280;59836;52.132;5.442;2023-08-12T09:08:22;101477.50;;;19.55;100.00
71966;BME280;59836;52.132;5.442;2023-08-12T09:10:51;101483.81;;;19.55;100.00
71966;BME280;59836;52.132;5.442;2023-08-12T09:13:25;101493.03;;;19.51;100.00
71966;BME280;59836;52.132;5.442;2023-08-12T09:15:52;101500.41;;;19.41;100.00
71966;BME280;59836;52.132;5.442;2023-08-12T09:18:25;101494.53;;;19.34;100.00
71966;BME280;59836;52.132;5.442;2023-08-12T09:20:53;101500.09;;;19.20;100.00
71966;BME280;59836;52.132;5.442;2023-08-12T09:23:28;101499.53;;;19.09;100.00
71966;BME280;59836;52.132;5.442;2023-08-12T09:26:02;101486.03;;;18.99;100.00
71966;BME280;59836;52.132;5.442;2023-08-12T09:28:28;101480.13;;;18.92;100.00
71966;BME280;59836;52.132;5.442;2023-08-12T09:30:55;101474.25;;;18.84;100.00
71966;BME280;59836;52.132;5.442;2023-08-12T09:33:25;101491.34;;;18.81;100.00
71966;BME280;59836;52.132;5.442;2023-08-12T09:36:14;101495.84;;;18.77;100.00
71966;BME280;59836;52.132;5.442;2023-08-12T09:38:41;101496.44;;;18.74;100.00
71966;BME280;59836;52.132;5.442;2023-08-12T09:41:09;101500.31;;;18.73;100.00
71966;BME280;59836;52.132;5.442;2023-08-12T09:43:40;101510.81;;;18.71;100.00
71966;BME280;59836;52.132;5.442;2023-08-12T09:46:14;101508.88;;;18.71;100.00
71966;BME280;59836;52.132;5.442;2023-08-12T09:48:45;101513.56;;;18.71;100.00
71966;BME280;59836;52.132;5.442;2023-08-12T09:51:26;101516.00;;;18.72;100.00
71966;BME280;59836;52.132;5.442;2023-08-12T09:53:59;101507.44;;;18.74;100.00
71966;BME280;59836;52.132;5.442;2023-08-12T09:56:36;101528.81;;;18.77;100.00
71966;BME280;59836;52.132;5.442;2023-08-12T09:59:06;101541.44;;;18.78;100.00
71966;BME280;59836;52.132;5.442;2023-08-12T10:01:34;101535.94;;;18.78;100.00
71966;BME280;59836;52.132;5.442;2023-08-12T10:04:01;101537.06;;;18.77;100.00
71966;BME280;59836;52.132;5.442;2023-08-12T10:06:32;101546.53;;;18.71;100.00
71966;BME280;59836;52.132;5.442;2023-08-12T10:09:18;101552.63;;;18.68;100.00
71966;BME280;59836;52.132;5.442;2023-08-12T10:11:45;101535.88;;;18.69;100.00
71966;BME280;59836;52.132;5.442;2023-08-12T10:14:38;101537.16;;;18.72;100.00
71966;BME280;59836;52.132;5.442;2023-08-12T10:17:05;101521.69;;;18.76;100.00
71966;BME280;59836;52.132;5.442;2023-08-12T10:19:32;101505.59;;;18.83;100.00
71966;BME280;59836;52.132;5.442;2023-08-12T10:21:59;101518.41;;;18.88;100.00
71966;BME280;59836;52.132;5.442;2023-08-12T10:24:27;101514.72;;;18.93;100.00
71966;BME280;59836;52.132;5.442;2023-08-12T10:27:03;101520.63;;;19.00;100.00
71966;BME280;59836;52.132;5.442;2023-08-12T10:29:58;101530.41;;;19.06;100.00
71966;BME280;59836;52.132;5.442;2023-08-12T10:32:36;101521.03;;;19.07;100.00
71966;BME280;59836;52.132;5.442;2023-08-12T10:35:07;101524.78;;;19.11;100.00
71966;BME280;59836;52.132;5.442;2023-08-12T10:37:35;101524.66;;;19.16;100.00
71966;BME280;59836;52.132;5.442;2023-08-12T10:40:05;101513.72;;;19.25;100.00
71966;BME280;59836;52.132;5.442;2023-08-12T10:42:44;101518.28;;;19.30;100.00
71966;BME280;59836;52.132;5.442;2023-08-12T10:45:12;101522.84;;;19.35;100.00
71966;BME280;59836;52.132;5.442;2023-08-12T10:50:48;101524.41;;;19.27;100.00
71966;BME280;59836;52.132;5.442;2023-08-12T10:56:26;101537.03;;;19.28;100.00
71966;BME280;59836;52.132;5.442;2023-08-12T10:59:00;101519.91;;;19.31;100.00
71966;BME280;59836;52.132;5.442;2023-08-12T11:01:30;101529.16;;;19.35;100.00
71966;BME280;59836;52.132;5.442;2023-08-12T11:03:57;101529.03;;;19.40;100.00
71966;BME280;59836;52.132;5.442;2023-08-12T11:06:27;101531.03;;;19.49;100.00
71966;BME280;59836;52.132;5.442;2023-08-12T11:08:56;101529.41;;;19.47;100.00
71966;BME280;59836;52.132;5.442;2023-08-12T11:11:23;101533.47;;;19.50;100.00
71966;BME280;59836;52.132;5.442;2023-08-12T11:13:56;101529.78;;;19.55;100.00
71966;BME280;59836;52.132;5.442;2023-08-12T11:16:36;101530.78;;;19.59;100.00
71966;BME280;59836;52.132;5.442;2023-08-12T11:19:10;101526.91;;;19.60;100.00
71966;BME280;59836;52.132;5.442;2023-08-12T11:21:38;101526.25;;;19.63;100.00
71966;BME280;59836;52.132;5.442;2023-08-12T11:24:32;101517.56;;;19.70;100.00
71966;BME280;59836;52.132;5.442;2023-08-12T11:27:00;101520.47;;;19.73;100.00
71966;BME280;59836;52.132;5.442;2023-08-12T11:29:30;101522.09;;;19.74;100.00
71966;BME280;59836;52.132;5.442;2023-08-12T11:32:11;101507.72;;;19.77;100.00
71966;BME280;59836;52.132;5.442;2023-08-12T11:34:46;101514.34;;;19.76;100.00
71966;BME280;59836;52.132;5.442;2023-08-12T11:37:15;101523.59;;;19.81;100.00
71966;BME280;59836;52.132;5.442;2023-08-12T11:39:42;101534.47;;;19.86;100.00
71966;BME280;59836;52.132;5.442;2023-08-12T11:42:08;101522.84;;;19.89;100.00
71966;BME280;59836;52.132;5.442;2023-08-12T11:44:40;101523.34;;;19.91;100.00
71966;BME280;59836;52.132;5.442;2023-08-12T11:47:07;101530.47;;;19.92;100.00
71966;BME280;59836;52.132;5.442;2023-08-12T11:49:37;101526.59;;;19.93;100.00
71966;BME280;59836;52.132;5.442;2023-08-12T11:52:09;101522.22;;;19.92;100.00
71966;BME280;59836;52.132;5.442;2023-08-12T11:54:38;101519.97;;;19.94;100.00
71966;BME280;59836;52.132;5.442;2023-08-12T11:57:18;101511.41;;;19.96;100.00
71966;BME280;59836;52.132;5.442;2023-08-12T11:59:44;101511.56;;;19.99;99.19
71966;BME280;59836;52.132;5.442;2023-08-12T12:02:11;101521.16;;;20.02;99.15
71966;BME280;59836;52.132;5.442;2023-08-12T12:04:43;101521.31;;;20.05;99.39
71966;BME280;59836;52.132;5.442;2023-08-12T12:07:20;101519.06;;;20.08;100.00
71966;BME280;59836;52.132;5.442;2023-08-12T12:09:55;101519.41;;;20.15;99.70
71966;BME280;59836;52.132;5.442;2023-08-12T12:12:23;101518.13;;;20.21;98.60
71966;BME280;59836;52.132;5.442;2023-08-12T12:14:53;101519.13;;;20.25;100.00
71966;BME280;59836;52.132;5.442;2023-08-12T12:17:21;101527.22;;;20.30;99.79
71966;BME280;59836;52.132;5.442;2023-08-12T12:19:58;101525.97;;;20.37;100.00
71966;BME280;59836;52.132;5.442;2023-08-12T12:22:32;101521.94;;;20.43;97.50
71966;BME280;59836;52.132;5.442;2023-08-12T12:25:09;101526.16;;;20.49;96.27
71966;BME280;59836;52.132;5.442;2023-08-12T12:27:37;101524.38;;;20.53;96.62
71966;BME280;59836;52.132;5.442;2023-08-12T12:30:04;101520.00;;;20.52;94.93
71966;BME280;59836;52.132;5.442;2023-08-12T12:32:55;101526.16;;;20.49;95.99
71966;BME280;59836;52.132;5.442;2023-08-12T12:35:29;101532.16;;;20.51;91.09
71966;BME280;59836;52.132;5.442;2023-08-12T12:38:03;101532.66;;;20.53;92.78
71966;BME280;59836;52.132;5.442;2023-08-12T12:40:34;101527.63;;;20.55;94.39
71966;BME280;59836;52.132;5.442;2023-08-12T12:43:09;101530.53;;;20.59;94.07
71966;BME280;59836;52.132;5.442;2023-08-12T12:45:36;101532.00;;;20.65;93.49
71966;BME280;59836;52.132;5.442;2023-08-12T12:48:16;101525.53;;;20.70;94.35
71966;BME280;59836;52.132;5.442;2023-08-12T12:50:53;101526.38;;;20.79;93.13
71966;BME280;59836;52.132;5.442;2023-08-12T12:53:20;101525.91;;;20.86;88.57
71966;BME280;59836;52.132;5.442;2023-08-12T12:55:46;101525.41;;;20.92;91.21
71966;BME280;59836;52.132;5.442;2023-08-12T12:58:13;101524.44;;;20.88;92.76
71966;BME280;59836;52.132;5.442;2023-08-12T13:00:39;101528.31;;;20.87;92.02
71966;BME280;59836;52.132;5.442;2023-08-12T13:03:05;101523.63;;;20.88;89.85
71966;BME280;59836;52.132;5.442;2023-08-12T13:06:07;101520.53;;;20.89;91.51
71966;BME280;59836;52.132;5.442;2023-08-12T13:09:00;101525.41;;;20.92;91.41
71966;BME280;59836;52.132;5.442;2023-08-12T13:11:28;101519.44;;;20.99;87.95
71966;BME280;59836;52.132;5.442;2023-08-12T13:13:54;101534.50;;;21.02;89.58
71966;BME280;59836;52.132;5.442;2023-08-12T13:16:21;101518.78;;;21.02;86.87
71966;BME280;59836;52.132;5.442;2023-08-12T13:18:52;101529.47;;;21.04;87.81
71966;BME280;59836;52.132;5.442;2023-08-12T13:21:38;101530.44;;;21.08;85.83
71966;BME280;59836;52.132;5.442;2023-08-12T13:24:11;101523.31;;;21.07;86.55
71966;BME280;59836;52.132;5.442;2023-08-12T13:26:45;101536.44;;;21.10;88.62
71966;BME280;59836;52.132;5.442;2023-08-12T13:29:14;101526.25;;;21.11;87.44